Terminal Aerodrome Forecast
Issued by NWS Des Moines, IA

Home | Current Version | Previous Version | Text Only | Print | Product List | Glossary On
Versions: 1 2 3 4 5 6 7 8 9 10 11 12 13 14 15 16 17 18 19 20 21 22 23
000
FTUS43 KDMX 202341
TAFALO
TAF
KALO 202341Z 2100/2124 34005KT P6SM SCT040
     FM211300 09006KT P6SM BKN024
     FM211600 12008KT P6SM SCT027
     FM211700 14009KT P6SM SCT080
     FM212000 16013G20KT P6SM SCT150=

USA.gov is the U.S. government's official web portal to all federal, state and local government web resources and services.